Time;durP1;ratioP1;P1;durP2;ratioP2;P2;SDS_P1;SDS_P2;PMS_P1;PMS_P2;Temp;Humidity;BMP_temperature;BMP_pressure;BME280_temperature;BME280_humidity;BME280_pressure;Samples;Min_cycle;Max_cycle;Signal;HPM_P1;HPM_P2
2021/05/01 00:00:38;;;;;;;11.20;6.80;;;14.70;65.70;;;;;;12083707;28;20050;-79
2021/05/01 00:06:25;;;;;;;14.13;7.47;;;14.80;66.00;;;;;;12089753;28;20507;-81
2021/05/01 00:12:12;;;;;;;11.20;7.10;;;14.80;66.40;;;;;;12087672;28;20106;-79
2021/05/01 00:17:58;;;;;;;15.18;6.82;;;14.70;67.30;;;;;;12083346;28;20434;-80
2021/05/01 00:23:45;;;;;;;11.15;6.88;;;14.70;68.40;;;;;;12093029;28;20044;-80
2021/05/01 00:29:33;;;;;;;14.02;6.20;;;14.80;68.90;;;;;;12086600;28;20504;-79
2021/05/01 00:35:19;;;;;;;11.43;6.65;;;14.80;68.60;;;;;;12082275;28;20048;-80
2021/05/01 00:41:06;;;;;;;11.68;6.95;;;14.70;68.70;;;;;;12099337;28;20044;-80
2021/05/01 00:46:55;;;;;;;13.38;7.72;;;14.70;68.50;;;;;;12108675;28;20051;-80
2021/05/01 00:59:58;;;;;;;13.10;7.32;;;14.60;69.10;;;;;;12154582;28;20048;-81
2021/05/01 07:44:09;;;;;;;27.42;18.55;;;12.60;99.90;;;;;;11988799;27;1702701;-81
2021/05/01 07:49:56;;;;;;;26.55;18.13;;;13.30;99.90;;;;;;12045518;28;20054;-82
2021/05/01 07:55:43;;;;;;;25.25;19.15;;;14.10;98.20;;;;;;12044789;28;20053;-81
2021/05/01 08:01:31;;;;;;;28.33;19.55;;;14.60;96.40;;;;;;12038198;28;20053;-79
2021/05/01 08:07:17;;;;;;;25.73;18.33;;;14.90;94.20;;;;;;12042435;28;20052;-79
2021/05/01 08:13:04;;;;;;;24.45;17.90;;;15.20;92.80;;;;;;12036510;28;20052;-81
2021/05/01 08:18:53;;;;;;;26.42;17.42;;;15.30;91.60;;;;;;12022293;28;20041;-83
2021/05/01 08:24:39;;;;;;;23.08;14.60;;;15.40;90.00;;;;;;12023381;28;20045;-82
2021/05/01 08:30:25;;;;;;;17.25;13.02;;;15.40;87.10;;;;;;12035414;28;20041;-81
2021/05/01 08:36:13;;;;;;;33.05;21.00;;;15.50;84.90;;;;;;12042774;28;20492;-79
2021/05/01 08:42:00;;;;;;;27.92;17.73;;;15.50;83.80;;;;;;12039959;28;20052;-79
2021/05/01 08:47:48;;;;;;;24.98;17.40;;;15.40;82.60;;;;;;12025964;28;20057;-79
2021/05/01 08:53:36;;;;;;;30.73;18.13;;;15.50;84.30;;;;;;11986662;28;20048;-83
2021/05/01 08:59:24;;;;;;;24.80;16.77;;;15.50;84.30;;;;;;11939484;28;20136;-82
2021/05/01 09:05:13;;;;;;;29.20;17.58;;;15.50;82.00;;;;;;11995787;28;20508;-80
2021/05/01 09:11:04;;;;;;;23.02;16.42;;;15.50;81.10;;;;;;11991893;28;20049;-83
2021/05/01 09:16:58;;;;;;;22.00;16.70;;;15.50;80.70;;;;;;11993686;28;20049;-79
2021/05/01 09:22:51;;;;;;;;;;;15.60;81.80;;;;;;11997333;28;20188;-79
2021/05/01 09:28:48;;;;;;;24.40;13.77;;;15.80;82.80;;;;;;11996164;28;21379;-79
2021/05/01 09:34:37;;;;;;;21.42;15.23;;;15.90;82.20;;;;;;11993535;28;20435;-81
2021/05/01 09:40:31;;;;;;;19.48;14.45;;;15.90;79.90;;;;;;11990980;28;20049;-83
2021/05/01 09:46:18;;;;;;;30.55;20.95;;;16.00;80.50;;;;;;11985332;28;20056;-77
2021/05/01 09:52:09;;;;;;;27.52;18.75;;;16.00;80.60;;;;;;11986116;28;20067;-79
2021/05/01 09:57:55;;;;;;;27.45;17.92;;;15.90;80.90;;;;;;11988645;28;20072;-79
2021/05/01 10:03:43;;;;;;;28.02;19.58;;;15.90;78.60;;;;;;11988469;28;20045;-79
2021/05/01 10:09:32;;;;;;;29.05;20.67;;;15.90;82.20;;;;;;11996076;28;20053;-79
2021/05/01 10:15:21;;;;;;;26.25;19.02;;;15.80;81.30;;;;;;11990108;28;20048;-80
2021/05/01 10:21:24;;;;;;;29.60;19.00;;;15.70;83.70;;;;;;11989816;28;20102;-81
2021/05/01 10:27:10;;;;;;;28.00;20.20;;;15.70;82.70;;;;;;11991125;28;20055;-81
2021/05/01 10:33:09;;;;;;;28.98;20.75;;;15.50;83.40;;;;;;11992163;28;20065;-82
2021/05/01 10:39:14;;;;;;;37.03;21.80;;;15.50;86.00;;;;;;11991672;28;20077;-82
2021/05/01 10:45:09;;;;;;;35.10;22.58;;;15.50;86.50;;;;;;11979598;28;20060;-80
2021/05/01 10:51:07;;;;;;;50.33;26.23;;;15.50;86.40;;;;;;11988671;28;20496;-81
2021/05/01 10:56:56;;;;;;;52.05;32.75;;;15.40;85.30;;;;;;11984233;28;20095;-78
2021/05/01 11:02:59;;;;;;;30.95;20.10;;;15.40;84.30;;;;;;11991143;28;20053;-78
2021/05/01 11:08:56;;;;;;;33.72;20.73;;;15.40;85.40;;;;;;11984751;28;21414;-84
2021/05/01 11:14:49;;;;;;;27.67;19.50;;;15.40;85.30;;;;;;11963912;28;20635;-84
2021/05/01 11:20:37;;;;;;;26.60;17.53;;;15.40;86.90;;;;;;11987200;28;20099;-82
2021/05/01 11:26:24;;;;;;;26.95;16.90;;;15.40;81.60;;;;;;11979411;28;20052;-83
2021/05/01 11:32:12;;;;;;;29.88;19.75;;;15.20;83.40;;;;;;11994688;28;20065;-82
2021/05/01 11:38:03;;;;;;;37.65;23.02;;;15.10;83.40;;;;;;12001880;28;20424;-82
2021/05/01 11:44:05;;;;;;;29.85;20.42;;;15.20;84.60;;;;;;12002072;28;20052;-82
2021/05/01 11:50:07;;;;;;;29.38;18.85;;;15.10;80.70;;;;;;12003876;28;20057;-83
2021/05/01 11:55:57;;;;;;;26.38;18.73;;;14.90;81.00;;;;;;12011344;28;20052;-82
2021/05/01 12:02:00;;;;;;;23.48;17.75;;;14.90;82.30;;;;;;12021953;28;20070;-83
2021/05/01 12:07:58;;;;;;;28.80;18.15;;;15.10;84.40;;;;;;11992069;28;20130;-82
2021/05/01 12:13:49;;;;;;;27.92;18.48;;;15.30;80.60;;;;;;11996161;28;20056;-82
2021/05/01 12:19:47;;;;;;;34.05;21.85;;;15.30;82.20;;;;;;11994290;28;20057;-81
2021/05/01 12:25:48;;;;;;;35.33;21.88;;;15.20;79.10;;;;;;11990923;28;20504;-83
2021/05/01 12:31:51;;;;;;;33.00;22.90;;;15.20;81.40;;;;;;12007073;28;20095;-83
2021/05/01 12:37:38;;;;;;;34.97;22.50;;;15.40;82.20;;;;;;11997810;28;20049;-82
2021/05/01 12:43:42;;;;;;;34.97;23.45;;;15.10;79.50;;;;;;11998568;28;20060;-82
2021/05/01 12:49:31;;;;;;;32.75;20.55;;;15.20;78.70;;;;;;12002635;28;20041;-82
2021/05/01 12:55:18;;;;;;;42.20;23.60;;;15.40;79.40;;;;;;11998997;28;20076;-82
2021/05/01 13:01:25;;;;;;;28.73;20.67;;;15.60;79.60;;;;;;12004216;28;20044;-82
2021/05/01 13:07:13;;;;;;;27.30;20.27;;;15.60;77.50;;;;;;12004870;28;20515;-81
2021/05/01 13:13:05;;;;;;;34.28;21.88;;;15.60;76.90;;;;;;12007168;28;20037;-82
2021/05/01 13:19:08;;;;;;;30.67;20.95;;;15.60;77.20;;;;;;12010182;28;20519;-81
2021/05/01 13:25:03;;;;;;;30.37;21.67;;;15.80;78.40;;;;;;11999336;28;20045;-83
2021/05/01 13:30:50;;;;;;;32.08;22.65;;;16.10;77.90;;;;;;11998006;28;20607;-83
2021/05/01 13:36:38;;;;;;;128.38;78.97;;;16.40;78.20;;;;;;11989613;28;20053;-77
2021/05/01 13:42:26;;;;;;;34.10;23.33;;;16.50;77.10;;;;;;11991011;28;20053;-83
2021/05/01 13:54:17;;;;;;;;;;;16.50;77.10;;;;;;12010300;28;20523;-83
2021/05/01 14:00:05;;;;;;;31.13;21.75;;;16.60;77.00;;;;;;12001599;28;20004;-85
2021/05/01 14:05:53;;;;;;;32.80;22.73;;;16.80;76.10;;;;;;11991385;28;20133;-85
2021/05/01 14:11:42;;;;;;;31.60;21.80;;;16.80;74.70;;;;;;12000189;28;20523;-85
2021/05/01 14:17:29;;;;;;;26.77;19.52;;;16.90;75.10;;;;;;12000872;28;20056;-85
2021/05/01 14:23:35;;;;;;;27.00;20.38;;;17.00;72.60;;;;;;12018720;28;20475;-83
2021/05/01 14:29:23;;;;;;;28.85;19.92;;;17.10;72.30;;;;;;12007650;28;20099;-85
2021/05/01 14:35:12;;;;;;;31.77;21.17;;;17.00;71.80;;;;;;11997745;28;20054;-83
2021/05/01 14:40:59;;;;;;;26.02;20.08;;;16.90;71.60;;;;;;12019046;28;20657;-82
2021/05/01 14:46:46;;;;;;;28.70;19.90;;;17.00;72.00;;;;;;12015540;28;20059;-85
2021/05/01 14:52:37;;;;;;;24.27;18.23;;;17.30;71.50;;;;;;12020974;28;20045;-83
2021/05/01 14:58:26;;;;;;;24.13;18.00;;;17.30;70.00;;;;;;12012339;28;20083;-85
2021/05/01 15:04:13;;;;;;;25.70;18.40;;;17.30;70.20;;;;;;12017907;28;20415;-84
2021/05/01 15:10:06;;;;;;;23.13;17.15;;;17.20;69.50;;;;;;12016299;28;20166;-86
2021/05/01 15:15:54;;;;;;;21.17;16.45;;;17.00;68.90;;;;;;12031162;28;20045;-84
2021/05/01 15:21:41;;;;;;;22.40;16.85;;;17.00;69.50;;;;;;12027862;28;20053;-84
2021/05/01 15:27:31;;;;;;;21.20;15.98;;;17.30;69.80;;;;;;12013114;28;20060;-83
2021/05/01 15:33:23;;;;;;;20.35;15.32;;;17.60;68.40;;;;;;12020586;28;20041;-82
2021/05/01 15:39:11;;;;;;;19.00;15.37;;;18.20;66.30;;;;;;11959396;28;20056;-79
2021/05/01 15:45:09;;;;;;;22.52;15.82;;;18.00;64.80;;;;;;11988939;28;20516;-77
2021/05/01 15:50:55;;;;;;;20.60;15.75;;;17.50;66.00;;;;;;11994541;28;20052;-81
2021/05/01 15:56:43;;;;;;;17.73;14.20;;;17.10;66.70;;;;;;11988374;28;20057;-84
2021/05/01 16:02:29;;;;;;;18.38;13.93;;;17.30;68.10;;;;;;11994164;28;20064;-83
2021/05/01 16:08:16;;;;;;;19.13;13.68;;;17.90;66.00;;;;;;12001890;28;20049;-81
2021/05/01 16:14:05;;;;;;;20.88;15.60;;;18.00;64.90;;;;;;11985171;28;20056;-81
2021/05/01 16:19:53;;;;;;;22.50;16.45;;;17.60;65.10;;;;;;12006113;28;20075;-79
2021/05/01 16:25:39;;;;;;;20.50;15.23;;;17.10;67.30;;;;;;11983983;28;20051;-81
2021/05/01 16:31:26;;;;;;;21.33;15.40;;;16.80;67.80;;;;;;11995575;28;20037;-79
2021/05/01 16:37:14;;;;;;;21.30;14.40;;;16.50;67.90;;;;;;12003647;28;21294;-80
2021/05/01 16:43:03;;;;;;;20.65;14.32;;;16.10;69.00;;;;;;11941916;28;20049;-80
2021/05/01 16:48:51;;;;;;;21.75;15.13;;;16.10;69.60;;;;;;12008476;28;20069;-79
2021/05/01 16:54:37;;;;;;;16.92;12.85;;;16.10;68.20;;;;;;12006641;28;20078;-81
2021/05/01 17:00:24;;;;;;;17.85;13.38;;;15.90;67.80;;;;;;12016389;28;20037;-79
2021/05/01 17:06:11;;;;;;;20.90;13.05;;;15.90;68.90;;;;;;12016563;28;20049;-80
2021/05/01 17:11:58;;;;;;;17.67;13.63;;;15.80;68.20;;;;;;12003787;28;20063;-79
2021/05/01 17:17:46;;;;;;;17.65;12.98;;;15.80;68.50;;;;;;12016003;28;20048;-79
2021/05/01 17:23:33;;;;;;;18.05;13.07;;;15.70;68.40;;;;;;12011425;28;20481;-82
2021/05/01 17:29:21;;;;;;;18.35;13.73;;;15.70;68.80;;;;;;11985395;28;20053;-80
2021/05/01 17:35:09;;;;;;;19.17;12.10;;;15.60;68.80;;;;;;12004394;28;20057;-79
2021/05/01 17:40:57;;;;;;;16.52;12.77;;;15.60;69.10;;;;;;11996547;28;20109;-80
2021/05/01 17:46:43;;;;;;;18.27;12.93;;;15.60;69.50;;;;;;12010733;28;20498;-80
2021/05/01 17:52:32;;;;;;;15.60;12.38;;;15.60;69.40;;;;;;11995007;28;20563;-80
2021/05/01 17:58:19;;;;;;;16.15;12.07;;;15.60;68.50;;;;;;11997883;28;20061;-80
2021/05/01 18:04:06;;;;;;;17.63;13.65;;;15.50;68.70;;;;;;11988951;28;20076;-79
2021/05/01 18:09:52;;;;;;;18.63;12.60;;;15.40;69.00;;;;;;11987628;28;20049;-80
2021/05/01 18:15:40;;;;;;;18.70;12.02;;;15.30;70.20;;;;;;11988287;28;20056;-80
2021/05/01 18:21:26;;;;;;;20.13;13.85;;;15.10;70.80;;;;;;11991249;28;20053;-79
2021/05/01 18:27:16;;;;;;;16.85;13.20;;;14.90;71.70;;;;;;11980570;28;20053;-80
2021/05/01 18:33:04;;;;;;;23.45;14.68;;;14.60;74.00;;;;;;11987155;28;21669;-80
2021/05/01 18:38:51;;;;;;;24.83;14.85;;;14.60;75.40;;;;;;11980600;28;20049;-80
2021/05/01 18:44:37;;;;;;;27.02;15.85;;;14.10;77.40;;;;;;11997529;28;20064;-80
2021/05/01 18:50:28;;;;;;;21.45;15.57;;;14.00;78.40;;;;;;11989994;28;20048;-79
2021/05/01 18:56:15;;;;;;;23.52;15.63;;;13.80;79.50;;;;;;11989943;28;20056;-80
2021/05/01 19:02:01;;;;;;;26.10;17.10;;;13.70;80.40;;;;;;11988050;28;20060;-79
2021/05/01 19:07:49;;;;;;;26.70;17.33;;;13.80;81.00;;;;;;11992247;28;20063;-80
2021/05/01 19:13:42;;;;;;;28.15;19.10;;;13.70;81.80;;;;;;11982740;28;20049;-80
2021/05/01 19:19:29;;;;;;;25.75;17.15;;;13.60;82.90;;;;;;11994209;28;20052;-79
2021/05/01 19:25:20;;;;;;;21.38;15.50;;;13.70;82.60;;;;;;11991240;28;21491;-80
2021/05/01 19:31:07;;;;;;;24.50;15.20;;;13.40;82.40;;;;;;11982818;28;20090;-80
2021/05/01 19:36:55;;;;;;;25.00;16.13;;;13.10;82.70;;;;;;11988415;28;20178;-78
2021/05/01 19:42:49;;;;;;;25.63;16.25;;;12.90;83.90;;;;;;11993108;28;20068;-79
2021/05/01 19:48:35;;;;;;;25.83;16.20;;;12.60;85.80;;;;;;11936524;28;20069;-79
2021/05/01 19:54:21;;;;;;;26.70;16.33;;;12.50;86.70;;;;;;11992269;28;20053;-79
2021/05/01 20:00:14;;;;;;;24.65;15.55;;;12.60;86.90;;;;;;11988938;28;20566;-79
2021/05/01 20:06:04;;;;;;;21.53;15.10;;;12.40;86.30;;;;;;11980607;28;20304;-82
2021/05/01 20:11:51;;;;;;;25.25;15.50;;;12.10;87.80;;;;;;11988672;28;20102;-80
2021/05/01 20:17:38;;;;;;;24.05;15.18;;;12.00;89.20;;;;;;11982827;28;20064;-80
2021/05/01 20:23:27;;;;;;;22.70;15.80;;;12.00;90.10;;;;;;11992186;28;20057;-79
2021/05/01 20:29:13;;;;;;;24.17;15.77;;;12.20;90.60;;;;;;11990770;28;20504;-79
2021/05/01 20:35:01;;;;;;;24.75;16.33;;;11.90;91.90;;;;;;11994729;28;20048;-82
2021/05/01 20:40:48;;;;;;;23.50;16.25;;;12.10;91.90;;;;;;11997479;28;20061;-81
2021/05/01 20:46:34;;;;;;;26.50;16.58;;;12.10;92.40;;;;;;11992440;28;20051;-81
2021/05/01 20:52:21;;;;;;;29.52;18.27;;;12.00;92.80;;;;;;12003911;28;20063;-80
2021/05/01 20:58:08;;;;;;;28.17;18.08;;;11.90;93.90;;;;;;12004261;28;20054;-80
2021/05/01 21:03:54;;;;;;;29.02;19.02;;;11.90;95.60;;;;;;12006397;28;20044;-81
2021/05/01 21:09:42;;;;;;;25.27;18.13;;;11.80;99.30;;;;;;12004186;28;20769;-81
2021/05/01 21:15:28;;;;;;;27.80;18.55;;;11.60;99.90;;;;;;12008751;28;20458;-81
2021/05/01 21:21:15;;;;;;;31.50;19.73;;;11.30;99.90;;;;;;12000597;28;20056;-81
2021/05/01 21:27:02;;;;;;;33.67;20.80;;;11.30;99.90;;;;;;11995275;28;20055;-81
2021/05/01 21:32:49;;;;;;;30.77;20.15;;;11.20;99.90;;;;;;12000816;28;20107;-81
2021/05/01 21:38:35;;;;;;;33.65;20.40;;;11.20;99.90;;;;;;11989205;28;20576;-82
2021/05/01 21:44:22;;;;;;;27.52;19.23;;;10.90;99.90;;;;;;11999865;28;20056;-80
2021/05/01 21:50:10;;;;;;;30.77;20.20;;;10.70;99.90;;;;;;12013107;28;20519;-82
2021/05/01 21:55:56;;;;;;;34.90;21.10;;;11.00;99.90;;;;;;12014759;28;20052;-82
2021/05/01 22:01:44;;;;;;;29.85;20.77;;;11.20;99.90;;;;;;11996918;28;20731;-75
2021/05/01 22:07:30;;;;;;;30.75;21.13;;;11.30;99.90;;;;;;11987124;28;20124;-75
2021/05/01 22:13:17;;;;;;;33.67;21.65;;;11.30;99.90;;;;;;11995857;28;20075;-75
2021/05/01 22:19:17;;;;;;;37.28;22.45;;;11.30;99.90;;;;;;11992647;28;20451;-74
2021/05/01 22:25:10;;;;;;;33.00;22.13;;;11.30;99.90;;;;;;11932137;28;20057;-73
2021/05/01 22:30:56;;;;;;;31.00;19.92;;;11.10;99.90;;;;;;11975148;28;20052;-74
2021/05/01 22:36:44;;;;;;;33.55;21.58;;;11.40;99.90;;;;;;11977667;28;20508;-78
2021/05/01 22:42:30;;;;;;;34.47;21.77;;;11.60;99.90;;;;;;11982277;28;20416;-78
2021/05/01 22:48:17;;;;;;;32.55;21.23;;;11.70;99.90;;;;;;11986809;28;20524;-78
2021/05/01 22:54:08;;;;;;;34.13;21.98;;;11.70;99.90;;;;;;11984497;28;20071;-79
2021/05/01 22:59:55;;;;;;;34.97;22.48;;;11.90;99.90;;;;;;11983865;28;20041;-81
2021/05/01 23:05:46;;;;;;;33.42;21.90;;;12.00;99.90;;;;;;11996765;28;20088;-81
2021/05/01 23:11:36;;;;;;;32.90;22.70;;;12.10;99.90;;;;;;11995957;28;20136;-81
2021/05/01 23:17:26;;;;;;;35.00;22.35;;;12.10;99.90;;;;;;11988126;28;20443;-80
